Time;durP1;ratioP1;P1;durP2;ratioP2;P2;SDS_P1;SDS_P2;PMS_P1;PMS_P2;Temp;Humidity;BMP_temperature;BMP_pressure;BME280_temperature;BME280_humidity;BME280_pressure;Samples;Min_cycle;Max_cycle;Signal;HPM_P1;HPM_P2
2021/07/22 00:00:32;;;;;;;7.10;6.30;;;;;;;18.76;67.91;101577.78;6265295;22;20027;-87
2021/07/22 00:02:58;;;;;;;8.75;6.10;;;;;;;18.74;68.34;101575.19;6235441;22;20500;-86
2021/07/22 00:05:28;;;;;;;9.32;6.78;;;;;;;18.72;68.46;101568.19;6231813;22;20020;-85
2021/07/22 00:08:01;;;;;;;9.25;7.78;;;;;;;18.70;68.56;101567.38;6238881;22;20500;-86
2021/07/22 00:10:30;;;;;;;8.20;7.10;;;;;;;18.68;68.55;101562.97;6234585;22;20384;-85
2021/07/22 00:12:57;;;;;;;6.85;5.82;;;;;;;18.69;68.33;101569.13;6264118;22;20483;-87
2021/07/22 00:15:23;;;;;;;9.18;6.97;;;;;;;18.69;68.54;101566.50;6232399;22;20023;-85
2021/07/22 00:17:50;;;;;;;8.60;6.57;;;;;;;18.69;68.61;101571.78;6236588;22;20062;-86
2021/07/22 00:20:17;;;;;;;9.65;6.65;;;;;;;18.68;68.81;101570.94;6236422;22;20097;-86
2021/07/22 00:22:46;;;;;;;8.43;6.72;;;;;;;18.65;68.63;101571.00;6237964;22;20550;-85
2021/07/22 00:25:13;;;;;;;6.38;5.65;;;;;;;18.66;68.73;101563.94;6233478;22;20020;-87
2021/07/22 00:27:40;;;;;;;7.07;6.03;;;;;;;18.65;68.85;101559.53;6238776;22;20024;-87
2021/07/22 00:30:08;;;;;;;8.77;6.53;;;;;;;18.65;69.25;101570.16;6234027;22;20058;-86
2021/07/22 00:32:35;;;;;;;10.57;7.10;;;;;;;18.64;69.08;101558.69;6238266;22;20033;-86
2021/07/22 00:35:03;;;;;;;9.43;6.88;;;;;;;18.65;69.28;101567.50;6230636;22;20028;-87
2021/07/22 00:37:30;;;;;;;8.00;6.22;;;;;;;18.63;69.17;101569.31;6264467;22;20073;-85
2021/07/22 00:39:58;;;;;;;8.10;6.65;;;;;;;18.62;69.51;101560.50;6235348;22;20023;-86
2021/07/22 00:42:24;;;;;;;9.23;6.72;;;;;;;18.63;69.50;101561.34;6263120;22;20510;-87
2021/07/22 00:44:51;;;;;;;9.98;7.13;;;;;;;18.63;69.70;101562.25;6231160;22;20028;-87
2021/07/22 00:47:20;;;;;;;8.05;6.45;;;;;;;18.63;69.99;101558.69;6237956;22;20083;-85
2021/07/22 00:49:50;;;;;;;9.13;7.13;;;;;;;18.61;70.00;101556.09;6259396;22;20766;-86
2021/07/22 00:52:16;;;;;;;6.57;5.97;;;;;;;18.57;70.00;101553.59;6236630;22;20553;-86
2021/07/22 00:54:43;;;;;;;9.18;6.88;;;;;;;18.56;70.13;101560.66;6231223;22;20031;-87
2021/07/22 00:57:13;;;;;;;11.27;7.22;;;;;;;18.56;70.23;101559.81;6236254;22;20117;-86
2021/07/22 00:59:39;;;;;;;7.45;6.35;;;;;;;18.54;70.31;101551.00;6262010;22;20024;-86
2021/07/22 01:02:06;;;;;;;7.72;6.75;;;;;;;18.52;70.36;101556.34;6235128;22;20023;-85
2021/07/22 01:04:33;;;;;;;9.80;7.57;;;;;;;18.47;70.51;101561.81;6235364;22;20027;-84
2021/07/22 01:06:59;;;;;;;11.57;7.25;;;;;;;18.45;70.82;101562.75;6234011;22;20030;-86
2021/07/22 01:09:26;;;;;;;10.77;6.72;;;;;;;18.39;71.07;101561.13;6262929;22;20028;-87
2021/07/22 01:11:53;;;;;;;10.40;7.97;;;;;;;18.35;70.94;101559.47;6234040;22;20105;-87
2021/07/22 01:14:19;;;;;;;8.18;7.20;;;;;;;18.28;71.22;101552.63;6236049;22;20133;-86
2021/07/22 01:16:46;;;;;;;9.32;7.32;;;;;;;18.23;71.55;101554.50;6231697;22;20020;-86
2021/07/22 01:19:12;;;;;;;7.10;5.88;;;;;;;18.18;71.93;101551.97;6237164;22;20020;-86
2021/07/22 01:21:41;;;;;;;10.13;7.15;;;;;;;18.13;72.50;101552.13;6234441;22;20196;-85
2021/07/22 01:24:08;;;;;;;9.82;7.80;;;;;;;18.07;72.70;101552.25;6264897;22;20381;-85
2021/07/22 01:26:35;;;;;;;9.98;7.72;;;;;;;18.00;73.10;101548.91;6258680;22;20089;-86
2021/07/22 01:29:04;;;;;;;12.13;7.68;;;;;;;17.96;73.57;101552.50;6263546;22;20027;-85
2021/07/22 01:31:31;;;;;;;8.65;7.18;;;;;;;17.93;73.82;101549.09;6235858;22;20345;-85
2021/07/22 01:33:58;;;;;;;10.52;7.40;;;;;;;17.87;74.17;101539.47;6237522;22;20038;-87
2021/07/22 01:36:24;;;;;;;10.73;7.38;;;;;;;17.84;74.48;101544.88;6257382;22;20031;-86
2021/07/22 01:38:54;;;;;;;10.23;7.38;;;;;;;17.80;74.72;101554.66;6239443;22;20023;-86
2021/07/22 01:41:21;;;;;;;10.20;7.95;;;;;;;17.80;74.81;101556.44;6260832;22;20030;-86
2021/07/22 01:43:48;;;;;;;10.77;7.97;;;;;;;17.77;74.76;101549.44;6240267;22;20138;-85
2021/07/22 01:46:21;;;;;;;11.82;8.80;;;;;;;17.75;75.14;101553.03;6257913;22;20466;-87
2021/07/22 01:48:47;;;;;;;10.55;7.38;;;;;;;17.70;75.24;101547.84;6262616;22;20078;-87
2021/07/22 01:51:14;;;;;;;9.23;7.38;;;;;;;17.66;75.60;101539.13;6264265;22;20016;-86
2021/07/22 01:53:41;;;;;;;10.02;7.63;;;;;;;17.64;76.01;101540.06;6262441;22;20023;-86
2021/07/22 01:56:08;;;;;;;8.55;7.60;;;;;;;17.59;76.20;101531.38;6259569;22;20026;-85
2021/07/22 01:58:34;;;;;;;9.15;7.75;;;;;;;17.54;76.43;101539.41;6232962;22;20012;-86
2021/07/22 02:01:03;;;;;;;7.68;6.70;;;;;;;17.49;76.93;101536.00;6237178;22;20086;-86
2021/07/22 02:03:29;;;;;;;9.30;7.40;;;;;;;17.45;77.41;101536.97;6260406;22;20020;-86
2021/07/22 02:05:56;;;;;;;10.50;7.75;;;;;;;17.41;77.42;101544.13;6258678;22;20020;-85
2021/07/22 02:08:23;;;;;;;11.88;7.70;;;;;;;17.35;78.04;101539.84;6234616;22;20026;-86
2021/07/22 02:10:49;;;;;;;10.23;7.07;;;;;;;17.37;78.29;101539.81;6236422;22;20027;-86
2021/07/22 02:13:16;;;;;;;9.73;7.95;;;;;;;17.39;77.96;101539.75;6234044;22;20130;-86
2021/07/22 02:15:42;;;;;;;11.77;7.95;;;;;;;17.40;78.52;101545.03;6231116;22;20027;-86
2021/07/22 02:18:09;;;;;;;10.20;7.68;;;;;;;17.45;78.37;101536.97;6235009;22;20077;-86
2021/07/22 02:20:36;;;;;;;11.52;7.90;;;;;;;17.50;78.54;101535.09;6236433;22;20020;-85
2021/07/22 02:23:03;;;;;;;9.70;7.15;;;;;;;17.53;78.32;101541.19;6235742;22;20019;-86
2021/07/22 02:25:29;;;;;;;10.30;8.00;;;;;;;17.57;78.32;101538.47;6233833;22;20079;-86
2021/07/22 02:27:56;;;;;;;9.25;7.47;;;;;;;17.59;78.44;101537.53;6284334;22;20023;-85
2021/07/22 02:30:23;;;;;;;9.98;7.53;;;;;;;17.63;78.61;101543.63;6236886;22;20534;-86
2021/07/22 02:32:49;;;;;;;9.10;6.82;;;;;;;17.66;78.26;101551.47;6259987;22;20822;-85
2021/07/22 02:35:16;;;;;;;10.57;7.80;;;;;;;17.68;78.53;101541.72;6233866;22;20077;-86
2021/07/22 02:37:43;;;;;;;11.88;8.18;;;;;;;17.68;78.63;101545.25;6257828;22;20015;-85
2021/07/22 02:40:10;;;;;;;12.05;8.07;;;;;;;17.68;79.16;101549.69;6236109;22;20051;-85
2021/07/22 02:42:36;;;;;;;10.57;7.68;;;;;;;17.71;78.95;101559.31;6234823;22;20046;-85
2021/07/22 02:45:06;;;;;;;11.10;7.32;;;;;;;17.71;79.21;101548.72;6258469;22;20098;-86
2021/07/22 02:47:33;;;;;;;13.85;8.65;;;;;;;17.71;79.14;101554.03;6258012;22;20122;-87
2021/07/22 02:49:59;;;;;;;9.52;7.97;;;;;;;17.71;79.38;101552.25;6233878;22;20020;-86
2021/07/22 02:52:26;;;;;;;10.45;7.35;;;;;;;17.71;79.58;101549.59;6260769;22;20030;-85
2021/07/22 02:54:53;;;;;;;12.77;8.25;;;;;;;17.72;80.01;101548.69;6255195;22;20747;-86
2021/07/22 02:57:19;;;;;;;12.55;8.70;;;;;;;17.72;79.98;101550.44;6235993;22;20030;-86
2021/07/22 02:59:46;;;;;;;8.85;7.22;;;;;;;17.72;80.49;101556.63;6284325;22;20023;-86
2021/07/22 03:02:12;;;;;;;11.90;8.52;;;;;;;17.69;80.56;101560.22;6234664;22;20107;-86
2021/07/22 03:04:39;;;;;;;11.18;9.15;;;;;;;17.67;81.19;101553.22;6230469;22;20024;-85
2021/07/22 03:07:06;;;;;;;14.45;9.48;;;;;;;17.64;81.43;101559.47;6259909;22;20062;-85
2021/07/22 03:09:32;;;;;;;15.05;9.85;;;;;;;17.63;81.41;101562.16;6233983;22;20089;-86
2021/07/22 03:11:59;;;;;;;12.60;9.60;;;;;;;17.63;81.77;101563.00;6236617;22;20027;-87
2021/07/22 03:14:25;;;;;;;11.80;8.93;;;;;;;17.63;81.96;101564.81;6256636;22;20020;-86
2021/07/22 03:16:52;;;;;;;13.65;10.05;;;;;;;17.61;82.15;101559.56;6232870;22;20023;-85
2021/07/22 03:19:20;;;;;;;15.15;11.00;;;;;;;17.61;82.56;101566.59;6259454;22;20024;-85
2021/07/22 03:21:49;;;;;;;12.65;9.43;;;;;;;17.61;82.44;101566.59;6235622;22;20082;-85
2021/07/22 03:24:16;;;;;;;16.58;11.02;;;;;;;17.61;82.82;101561.31;6257567;22;20031;-86
2021/07/22 03:26:45;;;;;;;13.80;11.20;;;;;;;17.60;83.21;101559.56;6257603;22;20027;-84
2021/07/22 03:29:12;;;;;;;14.45;10.95;;;;;;;17.60;83.58;101562.22;6231574;22;20103;-85
2021/07/22 03:31:38;;;;;;;14.90;11.80;;;;;;;17.57;83.66;101559.66;6259518;22;20380;-85
2021/07/22 03:34:05;;;;;;;12.15;10.27;;;;;;;17.55;83.59;101558.78;6231110;22;20110;-83
2021/07/22 03:36:32;;;;;;;16.40;11.85;;;;;;;17.52;83.59;101555.34;6257267;22;20092;-83
2021/07/22 03:38:59;;;;;;;15.27;10.93;;;;;;;17.48;83.64;101558.06;6230671;22;20024;-83
2021/07/22 03:41:26;;;;;;;14.38;11.73;;;;;;;17.44;84.30;101557.31;6235214;22;20023;-84
2021/07/22 03:43:55;;;;;;;15.18;11.25;;;;;;;17.42;84.20;101558.25;6255350;22;20034;-85
2021/07/22 03:46:22;;;;;;;15.60;10.77;;;;;;;17.39;84.38;101555.66;6227126;22;20051;-85
2021/07/22 03:48:49;;;;;;;15.82;11.75;;;;;;;17.36;84.63;101556.59;6235059;22;20359;-85
2021/07/22 03:51:15;;;;;;;19.70;12.13;;;;;;;17.32;85.14;101553.13;6256082;22;20042;-85
2021/07/22 03:53:42;;;;;;;14.38;12.13;;;;;;;17.25;85.06;101548.00;6259871;22;20507;-86
2021/07/22 03:56:08;;;;;;;15.35;11.55;;;;;;;17.19;85.29;101554.31;6249886;22;20102;-85
2021/07/22 03:58:35;;;;;;;13.98;10.20;;;;;;;17.15;85.31;101550.88;6234089;22;20026;-85
2021/07/22 04:01:01;;;;;;;14.57;12.00;;;;;;;17.12;85.28;101550.94;6229722;22;20043;-84
2021/07/22 04:03:28;;;;;;;15.18;11.57;;;;;;;17.09;85.42;101550.13;6257007;22;20020;-85
2021/07/22 04:05:56;;;;;;;15.27;12.55;;;;;;;17.03;85.61;101556.44;6226566;22;20019;-85
2021/07/22 04:08:22;;;;;;;15.38;10.18;;;;;;;16.97;85.44;101553.91;6231566;22;20042;-85
2021/07/22 04:10:49;;;;;;;13.63;11.10;;;;;;;16.90;85.69;101553.19;6230067;22;20397;-85
2021/07/22 04:13:15;;;;;;;14.00;10.45;;;;;;;16.80;85.49;101555.09;6232611;22;20034;-86
2021/07/22 04:15:45;;;;;;;13.55;10.45;;;;;;;16.71;85.37;101563.22;6252250;22;20024;-86
2021/07/22 04:18:11;;;;;;;15.50;11.02;;;;;;;16.62;85.26;101563.41;6234514;22;20027;-88
2021/07/22 04:20:38;;;;;;;11.85;10.25;;;;;;;16.53;85.60;101569.72;6231937;22;20463;-86
2021/07/22 04:23:04;;;;;;;14.63;10.68;;;;;;;16.46;85.63;101566.34;6237676;22;20030;-86
2021/07/22 04:25:31;;;;;;;14.50;10.48;;;;;;;16.42;85.54;101563.81;6231796;22;20023;-90
2021/07/22 04:27:58;;;;;;;14.05;9.95;;;;;;;16.34;85.72;101558.66;6237275;22;20595;-86
2021/07/22 04:30:24;;;;;;;17.42;12.82;;;;;;;16.31;85.93;101563.97;6236387;22;20081;-88
2021/07/22 04:32:52;;;;;;;13.48;11.23;;;;;;;16.26;85.80;101568.50;6232103;22;20020;-86
2021/07/22 04:35:19;;;;;;;14.65;10.05;;;;;;;16.23;85.89;101563.25;6238365;22;20030;-89
2021/07/22 04:37:45;;;;;;;13.23;9.57;;;;;;;16.20;85.86;101562.44;6236845;22;20034;-88
2021/07/22 04:40:12;;;;;;;11.82;10.27;;;;;;;16.18;85.87;101558.06;6239243;22;20020;-86
2021/07/22 04:42:39;;;;;;;13.00;10.57;;;;;;;16.15;85.83;101559.00;6240073;22;20023;-86
2021/07/22 04:45:07;;;;;;;11.65;10.13;;;;;;;16.14;85.78;101551.97;6237851;22;20039;-88
2021/07/22 04:47:34;;;;;;;13.70;10.80;;;;;;;16.12;86.09;101564.31;6238931;22;20024;-85
2021/07/22 04:50:00;;;;;;;15.00;9.90;;;;;;;16.12;85.78;101569.59;6234333;22;20026;-85
2021/07/22 04:52:27;;;;;;;14.05;9.85;;;;;;;16.16;86.02;101559.84;6263086;22;20420;-86
2021/07/22 04:54:55;;;;;;;17.10;10.77;;;;;;;16.20;85.79;101561.53;6233975;22;20513;-88
2021/07/22 04:57:21;;;;;;;12.20;9.60;;;;;;;16.22;85.65;101567.69;6236932;22;20524;-86
2021/07/22 04:59:48;;;;;;;14.77;10.07;;;;;;;16.23;85.62;101566.78;6238185;22;20363;-86
2021/07/22 05:02:15;;;;;;;12.27;9.80;;;;;;;16.27;85.11;101565.81;6256108;22;20028;-85
2021/07/22 05:04:43;;;;;;;12.68;10.02;;;;;;;16.29;85.16;101566.66;6266914;22;20435;-89
2021/07/22 05:07:09;;;;;;;16.67;9.63;;;;;;;16.34;85.04;101561.28;6236181;22;20032;-88
2021/07/22 05:09:36;;;;;;;14.52;10.82;;;;;;;16.41;84.76;101559.41;6264206;22;20023;-87
2021/07/22 05:12:03;;;;;;;14.40;11.40;;;;;;;16.47;84.46;101564.59;6239718;22;20067;-87
2021/07/22 05:14:29;;;;;;;15.45;10.63;;;;;;;16.54;84.18;101555.63;6234503;22;20023;-87
2021/07/22 05:16:56;;;;;;;15.55;11.10;;;;;;;16.63;83.54;101568.66;6262556;22;20031;-84
2021/07/22 05:19:22;;;;;;;13.55;10.23;;;;;;;16.76;82.94;101569.28;6256264;22;20316;-85
2021/07/22 05:21:49;;;;;;;14.77;10.30;;;;;;;16.91;82.04;101569.91;6262867;22;20074;-85
2021/07/22 05:24:15;;;;;;;12.35;10.00;;;;;;;17.02;81.55;101568.78;6233192;22;20130;-85
2021/07/22 05:26:42;;;;;;;13.18;9.93;;;;;;;17.12;80.68;101572.09;6237538;22;20092;-85
2021/07/22 05:29:09;;;;;;;17.70;11.05;;;;;;;17.27;80.29;101570.88;6263031;22;20077;-89
2021/07/22 05:31:45;;;;;;;12.77;9.80;;;;;;;17.39;79.62;101563.59;6235065;22;20077;-87
2021/07/22 05:34:12;;;;;;;13.88;11.27;;;;;;;17.52;78.89;101562.38;6238209;22;20138;-85
2021/07/22 05:36:40;;;;;;;13.88;9.20;;;;;;;17.63;78.52;101562.16;6209193;22;20028;-85
2021/07/22 05:39:07;;;;;;;15.98;8.98;;;;;;;17.70;77.92;101561.09;6263097;22;20019;-85
2021/07/22 05:41:33;;;;;;;14.00;9.27;;;;;;;17.75;77.40;101561.00;6266736;22;20490;-86
2021/07/22 05:44:00;;;;;;;11.40;9.10;;;;;;;17.74;77.12;101567.19;6235705;22;20023;-85
2021/07/22 05:46:27;;;;;;;14.15;8.43;;;;;;;17.72;77.15;101566.34;6239478;22;20031;-85
2021/07/22 05:48:55;;;;;;;11.77;9.27;;;;;;;17.77;77.00;101562.69;6235940;22;20039;-86
2021/07/22 05:51:22;;;;;;;15.57;9.88;;;;;;;17.80;76.38;101565.25;6262546;22;20588;-85
2021/07/22 05:53:49;;;;;;;13.40;9.20;;;;;;;17.85;76.21;101566.00;6237234;22;20028;-86
2021/07/22 05:56:18;;;;;;;12.02;10.02;;;;;;;17.94;75.95;101569.34;6211553;22;20107;-85
2021/07/22 05:58:46;;;;;;;13.90;9.45;;;;;;;18.07;75.31;101568.16;6239775;22;20030;-86
2021/07/22 06:01:13;;;;;;;16.92;8.32;;;;;;;18.12;74.81;101573.31;6235284;22;20566;-86
2021/07/22 06:03:39;;;;;;;10.55;8.32;;;;;;;18.20;74.70;101576.66;6237974;22;20439;-85
2021/07/22 06:06:07;;;;;;;13.57;9.30;;;;;;;18.25;73.98;101576.53;6234581;22;20562;-85
2021/07/22 06:08:34;;;;;;;10.93;8.93;;;;;;;18.22;74.12;101572.19;6236817;22;20024;-86
2021/07/22 06:11:04;;;;;;;12.55;8.55;;;;;;;18.21;74.56;101575.72;6236891;22;20031;-86
2021/07/22 06:13:34;;;;;;;13.02;8.73;;;;;;;18.27;74.23;101574.72;6235023;22;20324;-84
2021/07/22 06:16:02;;;;;;;8.70;7.80;;;;;;;18.26;73.95;101572.97;6260801;22;20103;-85
2021/07/22 06:18:29;;;;;;;9.38;7.95;;;;;;;18.23;74.11;101568.63;6257412;22;20070;-85
2021/07/22 06:20:57;;;;;;;11.43;8.25;;;;;;;18.22;74.14;101572.19;6236451;22;20023;-83
2021/07/22 06:23:24;;;;;;;13.35;9.20;;;;;;;18.25;73.93;101573.88;6234197;22;20633;-86
2021/07/22 06:25:50;;;;;;;14.18;9.65;;;;;;;18.23;73.23;101568.63;6262431;22;20039;-86
2021/07/22 06:28:17;;;;;;;10.65;8.63;;;;;;;18.25;73.96;101574.75;6262126;22;20026;-86
2021/07/22 06:30:43;;;;;;;11.75;9.05;;;;;;;18.35;73.85;101578.03;6231102;22;20023;-86
2021/07/22 06:33:10;;;;;;;10.57;8.23;;;;;;;18.47;73.40;101580.38;6262114;22;20056;-87
2021/07/22 06:35:40;;;;;;;12.13;9.00;;;;;;;18.61;73.04;101585.25;6256762;22;20025;-85
2021/07/22 06:38:09;;;;;;;12.25;9.35;;;;;;;18.72;72.58;101585.00;6263429;22;20016;-85
2021/07/22 06:40:36;;;;;;;12.88;8.88;;;;;;;18.84;72.23;101581.13;6235058;22;20107;-85
2021/07/22 06:43:03;;;;;;;12.20;9.18;;;;;;;18.95;71.79;101573.72;6236351;22;20023;-86
2021/07/22 06:45:30;;;;;;;9.93;8.13;;;;;;;19.17;71.22;101584.56;6235989;22;20019;-85
2021/07/22 06:47:57;;;;;;;10.15;8.15;;;;;;;19.45;70.05;101574.88;6231997;22;20026;-85
2021/07/22 06:50:23;;;;;;;17.08;9.52;;;;;;;19.66;69.00;101573.34;6236611;22;20449;-86
2021/07/22 06:52:50;;;;;;;9.73;8.45;;;;;;;19.75;68.75;101572.16;6234387;22;20134;-87
2021/07/22 06:55:16;;;;;;;12.05;7.97;;;;;;;19.75;68.49;101573.06;6260624;22;20405;-86
2021/07/22 06:57:43;;;;;;;11.50;8.73;;;;;;;19.77;68.32;101578.31;6237392;22;20089;-84
2021/07/22 07:00:11;;;;;;;16.77;9.35;;;;;;;19.74;68.47;101579.28;6203931;22;20331;-85
2021/07/22 07:02:37;;;;;;;12.32;8.85;;;;;;;19.68;68.09;101579.47;6235227;22;20024;-85
2021/07/22 07:05:06;;;;;;;14.07;8.82;;;;;;;19.58;68.57;101580.69;6257470;22;20066;-85
2021/07/22 07:07:33;;;;;;;10.35;9.05;;;;;;;19.57;68.78;101582.47;6261765;22;20030;-84
2021/07/22 07:10:05;;;;;;;12.70;8.65;;;;;;;19.67;68.47;101580.38;6234612;22;20034;-84
2021/07/22 07:12:31;;;;;;;11.48;8.70;;;;;;;19.78;68.34;101578.25;6260170;22;20027;-86
2021/07/22 07:14:58;;;;;;;10.60;7.82;;;;;;;19.95;67.94;101580.38;6261363;22;20115;-86
2021/07/22 07:17:25;;;;;;;13.02;9.30;;;;;;;20.10;67.24;101581.66;6258133;22;20028;-88
2021/07/22 07:19:51;;;;;;;16.40;9.80;;;;;;;20.14;66.70;101588.63;6213192;22;20089;-86
2021/07/22 07:22:19;;;;;;;9.45;8.43;;;;;;;20.26;66.54;101589.09;6233344;22;20051;-87
2021/07/22 07:24:46;;;;;;;9.18;8.02;;;;;;;20.51;65.56;101591.78;6235283;22;20020;-85
2021/07/22 07:27:13;;;;;;;10.70;9.20;;;;;;;20.78;64.52;101589.94;6234753;22;20028;-85
2021/07/22 07:29:39;;;;;;;12.18;8.63;;;;;;;21.02;63.66;101579.28;6231481;22;20233;-84
2021/07/22 07:32:06;;;;;;;9.68;8.40;;;;;;;21.42;63.07;101588.41;6234151;22;20023;-86
2021/07/22 07:34:32;;;;;;;14.18;9.45;;;;;;;21.97;61.14;101587.97;6230541;22;20110;-84
2021/07/22 07:36:59;;;;;;;11.63;9.27;;;;;;;22.48;58.46;101584.94;6236434;22;20027;-85
2021/07/22 07:39:30;;;;;;;15.23;10.15;;;;;;;22.55;57.94;101586.41;6262403;22;20354;-86
2021/07/22 07:41:57;;;;;;;11.70;10.00;;;;;;;22.82;56.59;101585.25;6259476;22;20027;-84
2021/07/22 07:44:23;;;;;;;16.08;9.20;;;;;;;23.23;54.86;101582.47;6236996;22;20027;-84
2021/07/22 07:46:50;;;;;;;15.75;9.82;;;;;;;23.34;54.72;101577.47;6232635;22;20055;-85
2021/07/22 07:49:16;;;;;;;9.13;8.15;;;;;;;23.21;55.22;101579.03;6236840;22;20047;-85
2021/07/22 07:51:43;;;;;;;13.35;9.32;;;;;;;23.01;54.97;101572.78;6235794;22;20051;-86
2021/07/22 07:54:11;;;;;;;14.50;8.45;;;;;;;22.67;56.12;101579.66;6236698;22;20020;-85
2021/07/22 07:56:39;;;;;;;10.20;8.32;;;;;;;22.58;56.48;101577.38;6237748;22;20019;-87
2021/07/22 07:59:06;;;;;;;15.00;9.70;;;;;;;22.54;56.37;101583.81;6232629;22;20065;-85
2021/07/22 08:01:32;;;;;;;12.02;9.25;;;;;;;22.48;56.89;101581.44;6260124;22;20387;-85
2021/07/22 08:03:59;;;;;;;11.73;8.40;;;;;;;22.42;56.71;101572.75;6231817;22;20122;-83
2021/07/22 08:06:25;;;;;;;11.32;9.30;;;;;;;22.29;56.85;101582.19;6235033;22;20577;-86
2021/07/22 08:08:52;;;;;;;8.68;7.18;;;;;;;22.07;57.57;101579.56;6237135;22;20019;-85
2021/07/22 08:11:19;;;;;;;11.55;8.98;;;;;;;21.91;58.10;101582.03;6233101;22;20073;-86
2021/07/22 08:13:46;;;;;;;8.13;6.35;;;;;;;21.84;58.34;101586.75;6262641;22;20020;-86
2021/07/22 08:16:20;;;;;;;11.75;8.27;;;;;;;21.77;58.48;101583.47;6229800;22;20027;-84
2021/07/22 08:18:49;;;;;;;8.93;7.97;;;;;;;21.70;58.72;101583.78;6261934;22;20112;-83
2021/07/22 08:21:16;;;;;;;12.57;7.82;;;;;;;21.52;59.16;101578.22;6258384;22;20323;-85
2021/07/22 08:23:48;;;;;;;12.40;9.90;;;;;;;21.45;59.45;101580.28;6236307;22;20076;-85
2021/07/22 08:26:15;;;;;;;12.07;9.55;;;;;;;21.37;59.53;101581.50;6239133;22;20423;-86
2021/07/22 08:28:42;;;;;;;12.60;9.55;;;;;;;21.24;59.92;101584.66;6234389;22;20016;-85
2021/07/22 08:31:08;;;;;;;9.80;8.63;;;;;;;21.19;59.89;101583.97;6237343;22;20035;-86
2021/07/22 08:33:35;;;;;;;16.00;10.52;;;;;;;21.15;60.20;101585.03;6233677;22;20027;-84
2021/07/22 08:36:02;;;;;;;11.80;9.70;;;;;;;21.10;60.44;101584.31;6236803;22;20088;-85
2021/07/22 08:38:29;;;;;;;12.88;9.55;;;;;;;21.01;60.87;101590.00;6237724;22;20051;-85
2021/07/22 08:40:57;;;;;;;13.52;9.43;;;;;;;20.93;61.26;101582.31;6236154;22;20077;-84
2021/07/22 08:43:27;;;;;;;10.45;8.93;;;;;;;20.86;61.41;101583.44;6238345;22;20019;-85
2021/07/22 08:45:55;;;;;;;9.55;8.02;;;;;;;20.80;61.43;101580.09;6233272;22;20023;-85
2021/07/22 08:48:22;;;;;;;11.52;8.63;;;;;;;20.79;61.74;101583.69;6262851;22;20043;-85
2021/07/22 08:50:49;;;;;;;12.88;9.55;;;;;;;20.70;61.95;101581.34;6232814;22;20020;-84
2021/07/22 08:53:20;;;;;;;13.20;10.27;;;;;;;20.66;62.13;101582.34;6263430;22;20605;-84
2021/07/22 08:55:51;;;;;;;13.68;9.93;;;;;;;20.59;62.15;101580.88;6263092;22;20015;-86
2021/07/22 08:58:18;;;;;;;12.82;9.50;;;;;;;20.53;62.43;101586.41;6259880;22;20101;-86
2021/07/22 09:00:45;;;;;;;12.05;8.95;;;;;;;20.46;62.69;101578.63;6261803;22;20019;-84
2021/07/22 09:03:13;;;;;;;9.85;8.68;;;;;;;20.44;62.71;101590.25;6234123;22;20538;-87
2021/07/22 09:05:42;;;;;;;11.90;8.82;;;;;;;20.43;62.72;101588.53;6263252;22;20439;-84
2021/07/22 09:08:13;;;;;;;8.75;7.63;;;;;;;20.41;62.52;101587.69;6236772;22;20020;-86
2021/07/22 09:10:39;;;;;;;9.20;7.05;;;;;;;20.35;63.02;101587.91;6261298;22;20115;-87
2021/07/22 09:13:23;;;;;;;11.27;7.78;;;;;;;20.24;63.27;101582.97;6238284;22;20026;-86
2021/07/22 09:15:53;;;;;;;10.95;8.18;;;;;;;20.16;63.52;101583.25;6233382;22;20080;-87
2021/07/22 09:18:27;;;;;;;11.05;8.20;;;;;;;20.13;63.52;101588.69;6239378;22;20138;-86
2021/07/22 09:20:55;;;;;;;12.27;8.18;;;;;;;20.13;63.41;101586.88;6238213;22;20031;-86
2021/07/22 09:23:28;;;;;;;8.65;7.53;;;;;;;20.17;63.42;101587.66;6265364;22;20030;-86
2021/07/22 09:25:57;;;;;;;9.38;7.35;;;;;;;20.20;63.32;101589.31;6236612;22;20024;-88
2021/07/22 09:28:27;;;;;;;9.60;7.57;;;;;;;20.22;63.22;101585.69;6236239;22;20046;-85
2021/07/22 09:31:05;;;;;;;7.97;7.18;;;;;;;20.26;62.89;101587.31;6263320;22;20028;-84
2021/07/22 09:33:45;;;;;;;9.32;7.40;;;;;;;20.36;62.64;101592.31;6233476;22;20025;-85
2021/07/22 09:36:20;;;;;;;9.55;6.85;;;;;;;20.52;62.19;101582.88;6238189;22;20081;-86
2021/07/22 09:38:48;;;;;;;8.90;7.72;;;;;;;20.70;61.25;101588.47;6259330;22;20024;-85
2021/07/22 09:41:23;;;;;;;11.13;8.48;;;;;;;20.87;60.76;101590.50;6263644;22;20016;-87
2021/07/22 09:43:50;;;;;;;10.43;8.13;;;;;;;20.92;60.44;101592.06;6236344;22;20024;-85
2021/07/22 09:46:18;;;;;;;10.20;8.05;;;;;;;20.88;60.48;101585.13;6262142;22;20089;-87
2021/07/22 09:49:11;;;;;;;11.18;8.40;;;;;;;20.72;60.92;101584.84;6239611;22;20011;-91
2021/07/22 09:51:38;;;;;;;12.30;8.05;;;;;;;20.73;61.18;101581.25;6255824;22;20023;-83
2021/07/22 09:54:10;;;;;;;10.77;8.73;;;;;;;20.88;60.69;101590.44;6236679;22;20023;-84
2021/07/22 09:56:38;;;;;;;10.68;8.10;;;;;;;21.06;60.19;101588.03;6233536;22;20028;-84
2021/07/22 09:59:09;;;;;;;11.68;8.98;;;;;;;21.25;59.52;101586.41;6262921;22;20016;-84
2021/07/22 10:01:46;;;;;;;11.05;8.82;;;;;;;21.53;58.59;101585.28;6234168;22;20537;-86
2021/07/22 10:04:14;;;;;;;11.45;8.57;;;;;;;21.83;57.91;101587.69;6236479;22;20335;-87
2021/07/22 10:06:48;;;;;;;13.73;9.68;;;;;;;22.10;56.96;101584.78;6262803;22;20016;-87
2021/07/22 10:09:19;;;;;;;15.55;10.00;;;;;;;22.54;55.79;101583.81;6258561;22;20438;-86
2021/07/22 10:11:47;;;;;;;11.63;9.45;;;;;;;23.02;54.65;101584.31;6262728;22;20023;-85
2021/07/22 10:14:21;;;;;;;9.88;8.88;;;;;;;23.37;53.30;101580.00;6232768;22;20023;-86
2021/07/22 10:16:50;;;;;;;11.63;8.88;;;;;;;23.35;53.10;101576.56;6236780;22;20051;-87
2021/07/22 10:19:18;;;;;;;11.70;8.30;;;;;;;23.22;53.54;101586.94;6234790;22;20078;-88
2021/07/22 10:21:45;;;;;;;15.93;10.32;;;;;;;23.18;52.89;101577.34;6238461;22;20027;-86
2021/07/22 10:24:12;;;;;;;11.05;9.90;;;;;;;22.60;54.93;101575.53;6237589;22;20019;-86
2021/07/22 10:26:40;;;;;;;12.35;9.82;;;;;;;22.40;55.71;101571.09;6234002;22;20028;-87
2021/07/22 10:29:08;;;;;;;13.80;9.52;;;;;;;22.26;56.13;101561.00;6237859;22;20015;-87
2021/07/22 10:31:40;;;;;;;15.10;9.00;;;;;;;22.12;56.51;101565.13;6234543;22;20027;-85
2021/07/22 10:34:11;;;;;;;12.43;8.27;;;;;;;22.02;56.77;101568.22;6263126;22;20019;-85
2021/07/22 10:36:40;;;;;;;11.90;9.32;;;;;;;21.94;57.00;101566.78;6234868;22;20716;-88
2021/07/22 10:39:07;;;;;;;10.85;8.15;;;;;;;21.92;57.02;101568.63;6262710;22;20022;-86
2021/07/22 10:41:42;;;;;;;11.68;8.68;;;;;;;21.95;57.06;101563.19;6239391;22;20023;-84
2021/07/22 10:44:31;;;;;;;15.70;10.48;;;;;;;22.07;56.97;101560.91;6235180;22;20082;-86
2021/07/22 10:47:02;;;;;;;14.15;10.05;;;;;;;22.34;55.82;101563.31;6262230;22;20035;-85
2021/07/22 10:49:43;;;;;;;11.43;9.45;;;;;;;23.48;53.59;101554.56;6233931;22;20453;-85
2021/07/22 10:52:13;;;;;;;12.68;9.40;;;;;;;25.07;49.47;101549.00;6265062;22;20027;-86
2021/07/22 10:54:39;;;;;;;12.60;10.77;;;;;;;26.60;46.06;101549.97;6236113;22;20031;-85
2021/07/22 10:57:07;;;;;;;12.02;10.82;;;;;;;28.28;42.36;101544.34;6264423;22;20049;-88
2021/07/22 10:59:56;;;;;;;10.45;8.90;;;;;;;30.06;38.54;101533.19;6241453;22;20328;-86
2021/07/22 11:02:47;;;;;;;13.82;10.82;;;;;;;31.62;35.64;101537.75;6220149;22;20034;-88
2021/07/22 11:05:23;;;;;;;13.65;11.20;;;;;;;32.46;33.93;101534.19;6238021;22;20026;-87
2021/07/22 11:08:22;;;;;;;13.82;11.98;;;;;;;32.31;32.73;101530.97;6285668;22;20042;-86
2021/07/22 11:10:57;;;;;;;11.40;10.20;;;;;;;32.80;33.47;101533.03;6238442;22;20024;-86
2021/07/22 11:13:36;;;;;;;14.93;12.32;;;;;;;32.71;33.17;101528.41;6258936;22;20016;-86
2021/07/22 11:16:08;;;;;;;14.70;13.05;;;;;;;32.20;34.12;101532.91;6264276;22;20123;-86
2021/07/22 11:18:42;;;;;;;17.83;12.32;;;;;;;31.11;34.89;101538.41;6260992;22;20043;-86
2021/07/22 11:21:09;;;;;;;15.95;12.57;;;;;;;30.90;35.36;101527.47;6262087;22;20035;-85